Terminal Aerodrome Forecast
Issued by NWS Nashville, TN

Home | Current Version | Previous Version | Text Only | Print | Product List | Glossary On
Versions: 1 2 3 4 5 6 7 8 9 10 11 12 13 14 15 16 17 18 19 20 21 22 23 24 25
000
FTUS44 KOHX 050524
TAFCSV
TAF
KCSV 050524Z 0506/0606 28005KT P6SM SCT050
     FM050800 32004KT 4SM BR SCT030
     FM051000 31003KT 2SM BR SCT015
     FM051200 31005KT 4SM BR VCSH BKN015
     FM051500 32010G20KT P6SM VCSH BKN025
     FM060000 33009KT P6SM VCSH BKN050=

USA.gov is the U.S. government's official web portal to all federal, state and local government web resources and services.